createdAt,value
2023-10-10T00:01:33.954Z,19.85
2023-10-10T00:04:26.825Z,19.77
2023-10-10T00:07:15.506Z,19.81
2023-10-10T00:10:01.685Z,19.76
2023-10-10T00:12:49.256Z,19.81
2023-10-10T00:15:39.351Z,19.78
2023-10-10T00:18:26.250Z,19.74
2023-10-10T00:21:18.924Z,19.72
2023-10-10T00:24:05.265Z,19.66
2023-10-10T00:26:53.689Z,19.54
2023-10-10T00:29:46.152Z,19.55
2023-10-10T00:32:36.687Z,19.53
2023-10-10T00:35:23.899Z,19.52
2023-10-10T00:38:15.239Z,19.52
2023-10-10T00:41:07.259Z,19.50
2023-10-10T00:43:54.018Z,19.54
2023-10-10T00:46:40.972Z,19.52
2023-10-10T00:49:27.505Z,19.50
2023-10-10T00:52:17.970Z,19.54
2023-10-10T00:55:05.854Z,19.51
2023-10-10T00:57:57.085Z,19.52
2023-10-10T01:00:47.552Z,19.45
2023-10-10T01:03:36.205Z,19.44
2023-10-10T01:06:31.107Z,19.45
2023-10-10T01:09:16.916Z,19.41
2023-10-10T01:12:06.290Z,19.40
2023-10-10T01:14:56.054Z,19.36
2023-10-10T01:17:42.621Z,19.28
2023-10-10T01:20:36.246Z,19.22
2023-10-10T01:23:28.134Z,19.17
2023-10-10T01:26:14.482Z,19.16
2023-10-10T01:29:14.137Z,19.13
2023-10-10T01:32:00.746Z,19.13
2023-10-10T01:34:47.258Z,19.14
2023-10-10T01:37:36.719Z,19.17
2023-10-10T01:40:24.852Z,19.13
2023-10-10T01:43:11.915Z,19.12
2023-10-10T01:46:21.189Z,19.16
2023-10-10T01:49:10.045Z,19.15
2023-10-10T01:52:02.180Z,19.13
2023-10-10T01:54:54.091Z,19.11
2023-10-10T01:57:40.541Z,19.02
2023-10-10T02:00:26.976Z,19.06
2023-10-10T02:03:13.532Z,19.01
2023-10-10T02:06:00.944Z,18.97
2023-10-10T02:08:47.229Z,18.97
2023-10-10T02:11:33.458Z,18.97
2023-10-10T02:14:20.443Z,18.97
2023-10-10T02:17:21.362Z,18.97
2023-10-10T02:20:31.267Z,18.88
2023-10-10T02:23:26.350Z,18.71
2023-10-10T02:26:31.209Z,18.66
2023-10-10T02:29:36.455Z,18.65
2023-10-10T02:32:22.946Z,18.67
2023-10-10T02:35:28.064Z,18.67
2023-10-10T02:38:14.534Z,18.71
2023-10-10T02:41:23.226Z,18.70
2023-10-10T02:44:12.132Z,18.73
2023-10-10T02:46:58.444Z,18.74
2023-10-10T02:49:45.907Z,18.76
2023-10-10T02:52:31.985Z,18.75
2023-10-10T02:55:23.985Z,18.75
2023-10-10T02:58:21.776Z,18.73
2023-10-10T03:01:20.285Z,18.76
2023-10-10T03:04:09.875Z,18.74
2023-10-10T03:06:57.503Z,18.71
2023-10-10T03:10:03.688Z,18.69
2023-10-10T03:13:05.240Z,18.66
2023-10-10T03:15:52.921Z,18.60
2023-10-10T03:18:53.561Z,18.60
2023-10-10T03:21:48.828Z,18.58
2023-10-10T03:24:53.505Z,18.55
2023-10-10T03:28:06.415Z,18.51
2023-10-10T03:31:16.827Z,18.51
2023-10-10T03:34:12.303Z,18.47
2023-10-10T03:37:22.363Z,18.47
2023-10-10T03:40:28.289Z,18.49
2023-10-10T03:43:34.779Z,18.45
2023-10-10T03:46:39.361Z,18.40
2023-10-10T03:49:44.385Z,18.43
2023-10-10T03:52:50.308Z,18.39
2023-10-10T03:55:56.362Z,18.36
2023-10-10T03:59:01.247Z,18.31
2023-10-10T04:02:05.816Z,18.31
2023-10-10T04:05:25.849Z,18.33
2023-10-10T04:08:32.064Z,18.34
2023-10-10T04:11:36.524Z,18.32
2023-10-10T04:14:41.320Z,18.35
2023-10-10T04:17:45.811Z,18.33
2023-10-10T04:20:50.490Z,18.29
2023-10-10T04:23:55.281Z,18.29
2023-10-10T04:26:59.747Z,18.25
2023-10-10T04:30:04.448Z,18.25
2023-10-10T04:33:09.266Z,18.21
2023-10-10T04:36:13.711Z,18.24
2023-10-10T04:39:18.465Z,18.24
2023-10-10T04:42:22.948Z,18.23
2023-10-10T04:45:32.424Z,18.23
2023-10-10T04:48:37.041Z,18.24
2023-10-10T04:51:41.766Z,18.22
2023-10-10T04:54:46.519Z,18.23
2023-10-10T04:57:51.033Z,18.16
2023-10-10T05:00:57.495Z,18.13
2023-10-10T05:04:04.678Z,18.10
2023-10-10T05:07:09.354Z,18.07
2023-10-10T05:10:27.691Z,18.10
2023-10-10T05:13:32.051Z,18.14
2023-10-10T05:16:36.695Z,18.14
2023-10-10T05:19:42.386Z,18.15
2023-10-10T05:22:47.156Z,18.16
2023-10-10T05:25:33.218Z,18.12
2023-10-10T05:28:21.238Z,18.15
2023-10-10T05:31:11.441Z,18.19
2023-10-10T05:34:26.589Z,18.16
2023-10-10T05:37:12.645Z,18.14
2023-10-10T05:39:59.389Z,18.16
2023-10-10T05:42:46.353Z,18.18
2023-10-10T05:45:32.278Z,18.22
2023-10-10T05:48:19.435Z,18.22
2023-10-10T05:51:05.523Z,18.21
2023-10-10T05:53:52.874Z,18.26
2023-10-10T05:56:39.475Z,18.29
2023-10-10T05:59:25.621Z,18.32
2023-10-10T06:02:12.513Z,18.33
2023-10-10T06:05:00.588Z,18.36
2023-10-10T06:07:49.544Z,18.37
2023-10-10T06:10:36.248Z,18.42
2023-10-10T06:13:22.533Z,18.43
2023-10-10T06:16:17.220Z,18.47
2023-10-10T06:19:03.626Z,18.50
2023-10-10T06:21:57.165Z,18.55
2023-10-10T06:24:44.908Z,18.51
2023-10-10T06:27:30.946Z,18.53
2023-10-10T06:30:20.032Z,18.56
2023-10-10T06:33:16.469Z,18.58
2023-10-10T06:36:26.903Z,18.59
2023-10-10T06:39:12.775Z,18.62
2023-10-10T06:41:59.788Z,18.65
2023-10-10T06:44:49.469Z,18.60
2023-10-10T06:47:36.363Z,18.65
2023-10-10T06:50:22.769Z,18.72
2023-10-10T06:53:14.908Z,18.72
2023-10-10T06:56:18.912Z,18.77
2023-10-10T06:59:04.962Z,18.82
2023-10-10T07:01:50.724Z,18.79
2023-10-10T07:04:37.072Z,18.83
2023-10-10T07:07:27.728Z,18.90
2023-10-10T07:10:30.775Z,18.96
2023-10-10T07:13:20.224Z,19.05
2023-10-10T07:16:10.214Z,19.17
2023-10-10T07:18:57.666Z,19.26
2023-10-10T07:21:43.901Z,19.34
2023-10-10T07:24:42.307Z,19.36
2023-10-10T07:27:31.536Z,19.38
2023-10-10T07:30:18.150Z,19.48
2023-10-10T07:33:04.633Z,19.56
2023-10-10T07:35:55.116Z,19.60
2023-10-10T07:38:41.825Z,19.69
2023-10-10T07:41:29.303Z,19.74
2023-10-10T07:44:24.010Z,19.81
2023-10-10T07:47:16.175Z,19.93
2023-10-10T07:50:27.974Z,20.00
2023-10-10T07:53:14.616Z,20.08
2023-10-10T07:56:03.948Z,20.18
2023-10-10T07:58:58.100Z,20.26
2023-10-10T08:01:44.258Z,20.38
2023-10-10T08:04:32.373Z,20.53
2023-10-10T08:07:21.687Z,20.63
2023-10-10T08:10:28.112Z,20.74
2023-10-10T08:13:15.533Z,20.82
2023-10-10T08:16:03.957Z,20.92
2023-10-10T08:18:50.021Z,20.89
2023-10-10T08:21:50.247Z,20.91
2023-10-10T08:24:36.955Z,20.98
2023-10-10T08:27:24.243Z,21.02
2023-10-10T08:30:14.744Z,21.08
2023-10-10T08:33:01.539Z,21.15
2023-10-10T08:35:50.959Z,21.20
2023-10-10T08:38:43.338Z,21.26
2023-10-10T08:41:31.420Z,21.37
2023-10-10T08:44:22.237Z,21.44
2023-10-10T08:47:18.177Z,21.49
2023-10-10T08:50:05.179Z,21.59
2023-10-10T08:52:51.886Z,21.63
2023-10-10T08:55:40.402Z,21.78
2023-10-10T08:58:29.843Z,21.94
2023-10-10T09:01:15.876Z,22.07
2023-10-10T09:04:04.649Z,22.28
2023-10-10T09:07:01.421Z,22.40
2023-10-10T09:09:57.021Z,22.57
2023-10-10T09:13:02.516Z,22.70
2023-10-10T09:15:57.594Z,22.82
2023-10-10T09:18:43.678Z,22.94
2023-10-10T09:21:29.636Z,23.05
2023-10-10T09:24:29.424Z,23.12
2023-10-10T09:27:29.116Z,23.29
2023-10-10T09:30:16.677Z,23.47
2023-10-10T09:33:24.358Z,23.57
2023-10-10T09:36:10.724Z,23.68
2023-10-10T09:39:18.248Z,23.80
2023-10-10T09:42:29.292Z,23.84
2023-10-10T09:45:33.418Z,23.89
2023-10-10T09:48:29.874Z,23.97
2023-10-10T09:51:37.134Z,24.02
2023-10-10T09:54:26.829Z,24.04
2023-10-10T09:57:19.350Z,24.09
2023-10-10T10:00:23.972Z,24.11
2023-10-10T10:03:28.812Z,24.20
2023-10-10T10:06:52.380Z,24.26
2023-10-10T10:10:34.620Z,24.29
2023-10-10T10:13:39.863Z,24.33
2023-10-10T10:16:48.956Z,24.33
2023-10-10T10:19:35.012Z,24.32
2023-10-10T10:22:43.644Z,24.28
2023-10-10T10:25:34.617Z,24.17
2023-10-10T10:28:44.589Z,24.12
2023-10-10T10:31:38.514Z,24.05
2023-10-10T10:38:01.177Z,24.04
2023-10-10T10:41:18.505Z,24.04
2023-10-10T10:44:10.424Z,24.05
2023-10-10T10:46:58.239Z,24.12
2023-10-10T10:50:31.068Z,24.16
2023-10-10T10:53:49.698Z,24.40
2023-10-10T10:56:36.238Z,24.47
2023-10-10T10:59:22.290Z,24.52
2023-10-10T11:06:49.757Z,24.49
2023-10-10T11:09:38.791Z,24.67
2023-10-10T11:15:39.544Z,24.58
2023-10-10T11:18:36.424Z,24.68
2023-10-10T11:21:28.924Z,24.73
2023-10-10T11:24:17.149Z,24.79
2023-10-10T11:27:15.778Z,24.88
2023-10-10T11:30:11.455Z,24.98
2023-10-10T11:33:15.988Z,25.11
2023-10-10T11:36:22.932Z,25.37
2023-10-10T11:39:33.510Z,25.91
2023-10-10T11:42:34.558Z,26.33
2023-10-10T11:45:21.036Z,26.83
2023-10-10T11:48:14.622Z,27.81
2023-10-10T11:51:01.001Z,28.68
2023-10-10T11:53:47.837Z,30.03
2023-10-10T11:56:36.075Z,31.17
2023-10-10T11:59:24.475Z,30.97
2023-10-10T12:02:15.498Z,30.96
2023-10-10T12:05:15.862Z,30.29
2023-10-10T12:08:03.547Z,29.62
2023-10-10T12:10:53.600Z,29.06
2023-10-10T12:13:40.277Z,29.45
2023-10-10T12:16:26.697Z,30.92
2023-10-10T12:19:15.725Z,32.31
2023-10-10T12:22:09.463Z,33.27
2023-10-10T12:24:56.260Z,34.03
2023-10-10T12:27:47.578Z,34.29
2023-10-10T12:30:33.702Z,34.54
2023-10-10T12:33:25.747Z,34.40
2023-10-10T12:36:11.790Z,34.13
2023-10-10T12:38:59.355Z,33.71
2023-10-10T12:41:47.685Z,33.50
2023-10-10T12:44:33.761Z,32.98
2023-10-10T12:47:21.075Z,32.82
2023-10-10T12:50:14.247Z,32.54
2023-10-10T12:53:08.956Z,32.47
2023-10-10T12:56:02.114Z,32.37
2023-10-10T12:58:59.404Z,32.26
2023-10-10T13:01:53.238Z,32.16
2023-10-10T13:04:39.704Z,32.05
2023-10-10T13:07:26.190Z,31.74
2023-10-10T13:10:12.545Z,31.61
2023-10-10T13:12:59.872Z,31.55
2023-10-10T13:15:50.579Z,31.54
2023-10-10T13:18:36.959Z,31.60
2023-10-10T13:21:24.414Z,31.67
2023-10-10T13:24:15.375Z,31.77
2023-10-10T13:27:01.501Z,31.77
2023-10-10T13:29:49.287Z,32.04
2023-10-10T13:32:35.528Z,32.22
2023-10-10T13:35:21.865Z,32.32
2023-10-10T13:38:09.060Z,32.34
2023-10-10T13:40:55.214Z,32.17
2023-10-10T13:43:44.772Z,32.06
2023-10-10T13:46:36.241Z,31.71
2023-10-10T13:49:22.374Z,31.30
2023-10-10T13:52:11.676Z,30.90
2023-10-10T13:54:58.060Z,30.31
2023-10-10T13:57:44.690Z,29.86
2023-10-10T14:00:36.355Z,29.43
2023-10-10T14:03:38.756Z,29.01
2023-10-10T14:06:28.268Z,28.62
2023-10-10T14:09:27.121Z,28.14
2023-10-10T14:12:21.431Z,27.90
2023-10-10T14:15:07.848Z,27.58
2023-10-10T14:17:56.680Z,27.30
2023-10-10T14:20:44.814Z,27.04
2023-10-10T14:23:31.457Z,26.79
2023-10-10T14:26:28.553Z,26.62
2023-10-10T14:29:17.589Z,26.42
2023-10-10T14:32:04.620Z,26.31
2023-10-10T14:34:53.858Z,26.20
2023-10-10T14:37:54.231Z,26.06
2023-10-10T14:40:46.638Z,25.91
2023-10-10T14:43:34.292Z,25.77
2023-10-10T14:46:25.801Z,25.68
2023-10-10T14:49:30.302Z,25.53
2023-10-10T14:52:18.425Z,25.35
2023-10-10T14:55:08.181Z,25.21
2023-10-10T14:57:58.139Z,25.05
2023-10-10T15:00:46.313Z,24.95
2023-10-10T15:03:42.769Z,24.87
2023-10-10T15:06:30.191Z,24.76
2023-10-10T15:09:25.231Z,24.68
2023-10-10T15:12:13.662Z,24.68
2023-10-10T15:15:01.408Z,24.61
2023-10-10T15:17:47.657Z,24.62
2023-10-10T15:20:36.044Z,24.60
2023-10-10T15:23:22.556Z,24.60
2023-10-10T15:26:18.703Z,24.56
2023-10-10T15:29:05.595Z,24.53
2023-10-10T15:31:52.414Z,24.51
2023-10-10T15:34:42.076Z,24.40
2023-10-10T15:37:30.931Z,24.39
2023-10-10T15:40:23.431Z,24.33
2023-10-10T15:43:26.492Z,24.24
2023-10-10T15:46:28.190Z,24.19
2023-10-10T15:52:05.995Z,24.07
2023-10-10T15:54:53.069Z,24.05
2023-10-10T15:57:39.486Z,24.03
2023-10-10T16:00:39.276Z,24.02
2023-10-10T16:03:25.436Z,23.97
2023-10-10T16:06:11.997Z,23.88
2023-10-10T16:08:59.951Z,23.85
2023-10-10T16:11:54.481Z,23.84
2023-10-10T16:14:40.812Z,23.75
2023-10-10T16:17:29.908Z,23.73
2023-10-10T16:20:16.420Z,23.68
2023-10-10T16:23:02.841Z,23.65
2023-10-10T16:25:51.333Z,23.63
2023-10-10T16:28:38.752Z,23.61
2023-10-10T16:31:33.889Z,23.59
2023-10-10T16:34:20.006Z,23.52
2023-10-10T16:37:07.340Z,23.44
2023-10-10T16:39:53.666Z,23.44
2023-10-10T16:42:40.047Z,23.42
2023-10-10T16:45:27.335Z,23.40
2023-10-10T16:48:13.478Z,23.40
2023-10-10T16:51:03.134Z,23.38
2023-10-10T16:53:54.349Z,23.38
2023-10-10T16:56:41.850Z,23.37
2023-10-10T16:59:27.939Z,23.34
2023-10-10T17:02:14.210Z,23.34
2023-10-10T17:05:06.124Z,23.31
2023-10-10T17:07:55.685Z,23.31
2023-10-10T17:10:42.521Z,23.26
2023-10-10T17:13:30.561Z,23.22
2023-10-10T17:16:27.247Z,23.17
2023-10-10T17:19:18.348Z,23.12
2023-10-10T17:22:05.816Z,23.07
2023-10-10T17:24:51.857Z,23.03
2023-10-10T17:27:38.987Z,23.01
2023-10-10T17:30:29.529Z,22.95
2023-10-10T17:33:16.785Z,22.94
2023-10-10T17:36:04.416Z,22.89
2023-10-10T17:38:53.603Z,22.84
2023-10-10T17:41:39.670Z,22.82
2023-10-10T17:44:27.615Z,22.79
2023-10-10T17:47:16.432Z,22.76
2023-10-10T17:50:02.787Z,22.73
2023-10-10T17:52:49.046Z,22.70
2023-10-10T17:55:36.803Z,22.67
2023-10-10T17:58:37.870Z,22.65
2023-10-10T18:01:36.857Z,22.57
2023-10-10T18:04:45.304Z,22.57
2023-10-10T18:17:32.640Z,22.16
2023-10-10T18:20:28.721Z,22.38
2023-10-10T18:23:18.859Z,22.34
2023-10-10T18:26:28.055Z,22.34
2023-10-10T18:29:17.103Z,22.30
2023-10-10T18:32:06.752Z,22.30
2023-10-10T18:34:53.895Z,22.25
2023-10-10T18:38:01.099Z,22.24
2023-10-10T18:40:56.155Z,22.17
2023-10-10T18:43:43.439Z,22.19
2023-10-10T18:46:29.678Z,22.15
2023-10-10T18:49:16.305Z,22.12
2023-10-10T18:52:06.032Z,22.06
2023-10-10T18:54:53.107Z,22.06
2023-10-10T18:57:40.177Z,22.01
2023-10-10T19:00:27.762Z,22.02
2023-10-10T19:03:15.941Z,21.98
2023-10-10T19:06:02.117Z,21.93
2023-10-10T19:08:50.391Z,21.91
2023-10-10T19:11:36.441Z,21.90
2023-10-10T19:14:23.260Z,21.87
2023-10-10T19:17:09.457Z,21.84
2023-10-10T19:19:55.634Z,21.79
2023-10-10T19:22:41.807Z,21.75
2023-10-10T19:25:30.994Z,21.78
2023-10-10T19:28:17.680Z,21.74
2023-10-10T19:31:05.954Z,21.72
2023-10-10T19:33:53.686Z,21.73
2023-10-10T19:36:39.908Z,21.68
2023-10-10T19:39:28.837Z,21.64
2023-10-10T19:42:18.596Z,21.63
2023-10-10T19:45:22.520Z,21.59
2023-10-10T19:48:17.114Z,21.57
2023-10-10T19:51:08.685Z,21.55
2023-10-10T19:53:55.006Z,21.55
2023-10-10T19:56:43.916Z,21.55
2023-10-10T19:59:30.064Z,21.52
2023-10-10T20:02:16.727Z,21.51
2023-10-10T20:05:02.896Z,21.50
2023-10-10T20:07:50.215Z,21.49
2023-10-10T20:10:38.506Z,21.45
2023-10-10T20:13:24.851Z,21.42
2023-10-10T20:16:16.353Z,21.42
2023-10-10T20:19:02.919Z,21.39
2023-10-10T20:21:48.883Z,21.41
2023-10-10T20:24:36.182Z,21.36
2023-10-10T20:27:26.056Z,21.34
2023-10-10T20:30:15.856Z,21.35
2023-10-10T20:33:05.629Z,21.34
2023-10-10T20:35:53.135Z,21.31
2023-10-10T20:38:44.228Z,21.27
2023-10-10T20:41:30.645Z,21.21
2023-10-10T20:44:17.124Z,21.13
2023-10-10T20:47:05.052Z,21.11
2023-10-10T20:49:51.335Z,21.04
2023-10-10T20:52:39.555Z,21.01
2023-10-10T20:55:28.752Z,21.02
2023-10-10T20:58:16.460Z,20.98
2023-10-10T21:01:03.830Z,20.95
2023-10-10T21:03:49.931Z,20.91
2023-10-10T21:06:36.633Z,20.86
2023-10-10T21:09:23.242Z,20.81
2023-10-10T21:12:10.095Z,20.81
2023-10-10T21:14:56.301Z,20.76
2023-10-10T21:17:49.620Z,20.77
2023-10-10T21:20:44.776Z,20.72
2023-10-10T21:23:39.706Z,20.65
2023-10-10T21:26:26.199Z,20.65
2023-10-10T21:29:12.259Z,20.65
2023-10-10T21:31:58.305Z,20.56
2023-10-10T21:34:44.244Z,20.58
2023-10-10T21:37:30.319Z,20.54
2023-10-10T21:40:26.218Z,20.53
2023-10-10T21:43:12.413Z,20.51
2023-10-10T21:45:59.380Z,20.52
2023-10-10T21:48:45.548Z,20.50
2023-10-10T21:51:33.223Z,20.47
2023-10-10T21:54:22.335Z,20.42
2023-10-10T21:57:08.530Z,20.41
2023-10-10T21:59:55.003Z,20.37
2023-10-10T22:02:41.490Z,20.34
2023-10-10T22:05:27.426Z,20.31
2023-10-10T22:08:13.858Z,20.29
2023-10-10T22:11:03.339Z,20.28
2023-10-10T22:13:50.970Z,20.27
2023-10-10T22:16:36.967Z,20.29
2023-10-10T22:19:22.939Z,20.28
2023-10-10T22:22:09.095Z,20.30
2023-10-10T22:24:57.170Z,20.31
2023-10-10T22:27:43.030Z,20.30
2023-10-10T22:30:33.944Z,20.31
2023-10-10T22:33:20.420Z,20.30
2023-10-10T22:36:16.128Z,20.28
2023-10-10T22:39:07.961Z,20.21
2023-10-10T22:41:53.919Z,20.18
2023-10-10T22:44:40.073Z,20.16
2023-10-10T22:47:26.069Z,20.14
2023-10-10T22:50:16.324Z,20.11
2023-10-10T22:53:03.985Z,20.06
2023-10-10T22:55:49.818Z,20.03
2023-10-10T22:58:35.902Z,19.99
2023-10-10T23:01:23.583Z,19.98
2023-10-10T23:04:11.780Z,19.89
2023-10-10T23:06:59.186Z,19.93
2023-10-10T23:09:45.172Z,19.84
2023-10-10T23:12:37.579Z,19.84
2023-10-10T23:15:27.714Z,19.80
2023-10-10T23:18:14.864Z,19.70
2023-10-10T23:21:00.872Z,19.71
2023-10-10T23:23:47.074Z,19.69
2023-10-10T23:26:34.590Z,19.64
2023-10-10T23:29:20.308Z,19.60
2023-10-10T23:32:07.152Z,19.57
2023-10-10T23:34:53.276Z,19.52
2023-10-10T23:37:40.223Z,19.50
2023-10-10T23:40:26.289Z,19.47
2023-10-10T23:43:22.219Z,19.41
2023-10-10T23:46:08.426Z,19.36
2023-10-10T23:48:56.095Z,19.32
2023-10-10T23:51:45.595Z,19.30
2023-10-10T23:54:31.383Z,19.27
2023-10-10T23:57:19.700Z,19.20
